createdAt,value
2022-12-09T00:02:20.631Z,0.94
2022-12-09T00:07:23.961Z,1.01
2022-12-09T00:12:27.487Z,1.08
2022-12-09T00:17:32.782Z,1.09
2022-12-09T00:22:35.922Z,1.03
2022-12-09T00:27:39.211Z,1.04
2022-12-09T00:32:43.790Z,1.06
2022-12-09T00:37:47.920Z,1.04
2022-12-09T00:42:52.164Z,1.03
2022-12-09T00:47:56.614Z,1.02
2022-12-09T00:52:59.679Z,1.03
2022-12-09T00:58:03.168Z,1.04
2022-12-09T01:03:07.937Z,0.94
2022-12-09T01:08:12.571Z,0.94
2022-12-09T01:13:16.921Z,0.89
2022-12-09T01:18:21.666Z,0.97
2022-12-09T01:23:24.918Z,0.97
2022-12-09T01:28:27.752Z,1.01
2022-12-09T01:33:32.236Z,1.04
2022-12-09T01:38:35.314Z,1.04
2022-12-09T01:43:39.353Z,1.04
2022-12-09T01:48:47.846Z,0.95
2022-12-09T01:53:53.073Z,1.01
2022-12-09T01:59:02.568Z,1.08
2022-12-09T02:04:07.245Z,1.12
2022-12-09T02:09:11.123Z,1.10
2022-12-09T02:14:25.237Z,1.15
2022-12-09T02:19:40.572Z,1.15
2022-12-09T02:24:54.955Z,1.13
2022-12-09T02:30:09.776Z,1.14
2022-12-09T02:35:23.343Z,1.13
2022-12-09T02:40:33.035Z,1.14
2022-12-09T02:45:38.748Z,1.15
2022-12-09T02:50:46.298Z,1.15
2022-12-09T02:55:50.488Z,1.12
2022-12-09T03:00:56.491Z,1.17
2022-12-09T03:06:08.218Z,1.19
2022-12-09T03:11:14.382Z,1.18
2022-12-09T03:16:23.489Z,1.13
2022-12-09T03:21:33.320Z,1.19
2022-12-09T03:26:39.651Z,1.18
2022-12-09T03:31:43.820Z,1.17
2022-12-09T03:36:51.632Z,1.18
2022-12-09T03:41:58.403Z,1.06
2022-12-09T03:47:01.786Z,1.04
2022-12-09T03:52:12.222Z,0.95
2022-12-09T03:57:19.300Z,0.84
2022-12-09T04:02:23.619Z,0.87
2022-12-09T04:07:28.430Z,0.78
2022-12-09T04:12:31.512Z,0.67
2022-12-09T04:17:34.330Z,0.64
2022-12-09T04:22:38.850Z,0.66
2022-12-09T04:27:41.733Z,0.64
2022-12-09T04:32:45.135Z,0.58
2022-12-09T04:37:50.433Z,0.49
2022-12-09T04:42:53.525Z,0.45
2022-12-09T04:47:56.567Z,0.43
2022-12-09T04:53:01.130Z,0.44
2022-12-09T04:58:04.058Z,0.36
2022-12-09T05:03:07.273Z,0.29
2022-12-09T05:08:11.622Z,0.16
2022-12-09T05:13:15.159Z,0.21
2022-12-09T05:18:18.296Z,0.16
2022-12-09T05:23:23.255Z,0.20
2022-12-09T05:28:26.298Z,0.03
2022-12-09T05:33:29.580Z,0.24
2022-12-09T05:38:33.937Z,0.37
2022-12-09T05:43:37.737Z,0.41
2022-12-09T05:48:41.574Z,0.51
2022-12-09T05:53:46.344Z,0.51
2022-12-09T05:58:49.316Z,0.56
2022-12-09T06:03:54.191Z,0.64
2022-12-09T06:09:00.933Z,0.66
2022-12-09T06:14:04.972Z,0.68
2022-12-09T06:19:08.160Z,0.65
2022-12-09T06:24:12.556Z,0.66
2022-12-09T06:29:15.799Z,0.72
2022-12-09T06:34:18.837Z,0.82
2022-12-09T06:39:23.422Z,0.87
2022-12-09T06:44:26.395Z,0.79
2022-12-09T06:49:29.540Z,0.69
2022-12-09T06:54:35.296Z,0.59
2022-12-09T06:59:38.239Z,0.61
2022-12-09T07:04:41.436Z,0.57
2022-12-09T07:09:45.829Z,0.45
2022-12-09T07:14:49.262Z,0.33
2022-12-09T07:19:52.182Z,0.19
2022-12-09T07:24:57.259Z,0.08
2022-12-09T07:30:00.524Z,0.04
2022-12-09T07:35:03.911Z,-0.02
2022-12-09T07:40:09.348Z,0.06
2022-12-09T07:45:13.386Z,0.10
2022-12-09T07:50:17.205Z,0.15
2022-12-09T07:55:21.575Z,0.67
2022-12-09T08:00:24.508Z,1.02
2022-12-09T08:05:27.458Z,1.33
2022-12-09T08:10:31.830Z,1.31
2022-12-09T08:15:34.741Z,1.14
2022-12-09T08:20:38.539Z,1.01
2022-12-09T08:25:43.297Z,0.94
2022-12-09T08:30:46.500Z,0.92
2022-12-09T08:35:50.142Z,1.01
2022-12-09T08:40:54.766Z,0.91
2022-12-09T08:46:01.790Z,1.04
2022-12-09T08:51:05.861Z,1.20
2022-12-09T08:56:12.242Z,1.28
2022-12-09T09:01:17.424Z,1.31
2022-12-09T09:06:21.147Z,1.38
2022-12-09T09:11:26.941Z,1.31
2022-12-09T09:16:30.047Z,1.37
2022-12-09T09:21:34.575Z,1.41
2022-12-09T09:26:40.896Z,1.50
2022-12-09T09:31:44.239Z,1.55
2022-12-09T09:36:47.793Z,1.52
2022-12-09T09:41:55.493Z,1.43
2022-12-09T09:47:00.607Z,1.27
2022-12-09T09:52:09.616Z,1.34
2022-12-09T09:57:18.795Z,1.34
2022-12-09T10:02:37.914Z,1.28
2022-12-09T10:07:43.664Z,1.25
2022-12-09T10:13:08.078Z,1.28
2022-12-09T10:18:19.160Z,1.40
2022-12-09T10:23:23.419Z,1.45
2022-12-09T10:28:31.984Z,1.49
2022-12-09T10:33:39.010Z,1.59
2022-12-09T10:38:42.726Z,1.71
2022-12-09T10:43:47.335Z,1.70
2022-12-09T10:48:58.799Z,1.86
2022-12-09T10:54:05.023Z,1.92
2022-12-09T10:59:20.503Z,2.15
2022-12-09T11:04:26.374Z,1.95
2022-12-09T11:09:32.672Z,1.91
2022-12-09T11:14:40.475Z,1.95
2022-12-09T11:19:45.573Z,1.94
2022-12-09T11:24:49.046Z,2.08
2022-12-09T11:30:12.480Z,2.05
2022-12-09T11:35:18.937Z,1.98
2022-12-09T11:40:22.913Z,2.01
2022-12-09T11:45:30.904Z,2.36
2022-12-09T11:50:36.500Z,2.50
2022-12-09T11:55:45.095Z,2.34
2022-12-09T12:00:59.343Z,2.27
2022-12-09T12:06:05.147Z,2.38
2022-12-09T12:11:15.053Z,2.33
2022-12-09T12:16:27.278Z,2.14
2022-12-09T12:21:47.029Z,2.31
2022-12-09T12:27:04.794Z,2.47
2022-12-09T12:32:40.400Z,2.32
2022-12-09T12:37:51.790Z,2.15
2022-12-09T12:43:23.680Z,2.27
2022-12-09T12:48:35.179Z,2.47
2022-12-09T12:53:46.701Z,2.40
2022-12-09T12:59:02.858Z,2.65
2022-12-09T13:04:18.648Z,3.40
2022-12-09T13:09:26.684Z,3.95
2022-12-09T13:14:34.187Z,3.79
2022-12-09T13:19:42.670Z,3.34
2022-12-09T13:24:56.857Z,2.96
2022-12-09T13:30:07.619Z,2.78
2022-12-09T13:35:17.700Z,2.49
2022-12-09T13:40:36.646Z,2.24
2022-12-09T13:45:50.217Z,1.99
2022-12-09T13:50:59.598Z,1.80
2022-12-09T13:56:05.583Z,1.58
2022-12-09T14:01:19.287Z,1.76
2022-12-09T14:06:27.547Z,2.50
2022-12-09T14:11:48.480Z,3.19
2022-12-09T14:16:51.968Z,3.71
2022-12-09T14:22:56.657Z,3.82
2022-12-09T14:28:36.256Z,3.49
2022-12-09T14:33:42.163Z,3.45
2022-12-09T14:39:15.763Z,3.51
2022-12-09T14:44:26.420Z,3.02
2022-12-09T14:49:30.949Z,2.49
2022-12-09T14:54:36.568Z,1.97
2022-12-09T14:59:49.178Z,1.66
2022-12-09T15:04:52.827Z,1.37
2022-12-09T15:09:57.949Z,0.87
2022-12-09T15:15:06.960Z,0.78
2022-12-09T15:20:23.656Z,0.72
2022-12-09T15:25:27.385Z,0.61
2022-12-09T15:30:34.367Z,0.44
2022-12-09T15:35:37.359Z,0.28
2022-12-09T15:41:00.324Z,0.26
2022-12-09T15:46:05.438Z,0.20
2022-12-09T15:51:15.236Z,0.14
2022-12-09T15:56:23.284Z,0.15
2022-12-09T16:01:30.641Z,0.10
2022-12-09T16:06:36.192Z,0.07
2022-12-09T16:11:40.778Z,0.02
2022-12-09T16:16:48.194Z,-0.03
2022-12-09T16:21:54.251Z,-0.11
2022-12-09T16:26:57.610Z,-0.16
2022-12-09T16:32:21.715Z,-0.21
2022-12-09T16:37:37.344Z,-0.31
2022-12-09T16:42:41.129Z,-0.45
2022-12-09T16:47:46.156Z,-0.92
2022-12-09T16:52:49.286Z,-0.76
2022-12-09T16:57:52.607Z,-0.68
2022-12-09T17:03:02.646Z,-0.44
2022-12-09T17:08:05.910Z,-0.35
2022-12-09T17:13:08.699Z,-0.18
2022-12-09T17:18:12.860Z,-0.03
2022-12-09T17:23:15.612Z,0.02
2022-12-09T17:28:18.368Z,0.20
2022-12-09T17:33:25.245Z,0.30
2022-12-09T17:38:30.330Z,0.25
2022-12-09T17:43:33.523Z,0.20
2022-12-09T17:48:39.389Z,0.21
2022-12-09T17:53:43.503Z,-0.10
2022-12-09T17:58:47.205Z,-0.16
2022-12-09T18:03:56.596Z,-0.30
2022-12-09T18:09:00.861Z,-0.36
2022-12-09T18:14:04.182Z,-0.45
2022-12-09T18:19:12.701Z,-0.62
2022-12-09T18:24:15.528Z,-0.61
2022-12-09T18:29:18.393Z,-0.64
2022-12-09T18:34:23.183Z,-0.67
2022-12-09T18:39:25.935Z,-0.82
2022-12-09T18:44:28.699Z,-0.96
2022-12-09T18:49:32.846Z,-0.93
2022-12-09T18:54:36.530Z,-1.00
2022-12-09T18:59:39.316Z,-1.04
2022-12-09T19:04:43.631Z,-1.07
2022-12-09T19:09:46.492Z,-1.11
2022-12-09T19:14:49.284Z,-1.13
2022-12-09T19:19:53.422Z,-1.18
2022-12-09T19:24:56.146Z,-1.27
2022-12-09T19:29:58.953Z,-1.25
2022-12-09T19:35:03.283Z,-1.14
2022-12-09T19:40:08.439Z,-1.11
2022-12-09T19:45:14.343Z,-1.07
2022-12-09T19:50:19.878Z,-1.06
2022-12-09T19:55:22.647Z,-1.14
2022-12-09T20:00:25.459Z,-1.23
2022-12-09T20:05:29.636Z,-1.35
2022-12-09T20:10:32.414Z,-1.40
2022-12-09T20:15:37.456Z,-1.46
2022-12-09T20:20:47.177Z,-1.49
2022-12-09T20:25:51.497Z,-1.56
2022-12-09T20:30:54.377Z,-1.56
2022-12-09T20:36:04.581Z,-1.65
2022-12-09T20:41:11.028Z,-1.76
2022-12-09T20:46:16.339Z,-1.72
2022-12-09T20:51:23.688Z,-1.73
2022-12-09T20:56:27.835Z,-1.72
2022-12-09T21:01:32.640Z,-1.72
2022-12-09T21:06:39.376Z,-1.70
2022-12-09T21:11:42.269Z,-1.82
2022-12-09T21:16:46.843Z,-1.93
2022-12-09T21:21:50.932Z,-1.97
2022-12-09T21:26:55.957Z,-2.03
2022-12-09T21:31:58.656Z,-2.01
2022-12-09T21:37:02.904Z,-2.05
2022-12-09T21:42:05.847Z,-2.02
2022-12-09T21:47:08.555Z,-2.05
2022-12-09T21:52:12.625Z,-2.09
2022-12-09T21:57:15.562Z,-2.01
2022-12-09T22:02:18.388Z,-1.99
2022-12-09T22:07:22.549Z,-1.93
2022-12-09T22:12:25.360Z,-1.89
2022-12-09T22:17:28.252Z,-1.93
2022-12-09T22:22:32.348Z,-1.85
2022-12-09T22:27:35.261Z,-1.89
2022-12-09T22:32:41.544Z,-1.89
2022-12-09T22:37:48.049Z,-1.81
2022-12-09T22:42:51.339Z,-1.91
2022-12-09T22:47:55.342Z,-1.95
2022-12-09T22:52:59.466Z,-2.09
2022-12-09T22:58:02.271Z,-2.39
2022-12-09T23:03:05.215Z,-2.36
2022-12-09T23:08:09.557Z,-2.30
2022-12-09T23:13:12.537Z,-2.48
2022-12-09T23:18:15.356Z,-2.69
2022-12-09T23:23:20.561Z,-2.74
2022-12-09T23:28:23.297Z,-2.65
2022-12-09T23:33:26.070Z,-2.54
2022-12-09T23:38:30.177Z,-2.38
2022-12-09T23:43:33.811Z,-2.21
2022-12-09T23:48:37.064Z,-2.15
2022-12-09T23:53:42.303Z,-2.03
2022-12-09T23:58:45.679Z,-1.97
